Time;durP1;ratioP1;P1;durP2;ratioP2;P2;SDS_P1;SDS_P2;PMS_P1;PMS_P2;Temp;Humidity;BMP_temperature;BMP_pressure;BME280_temperature;BME280_humidity;BME280_pressure;Samples;Min_cycle;Max_cycle;Signal;HPM_P1;HPM_P2
2021/03/30 00:00:35;;;;;;;17.17;9.70;;;23.50;38.10;;;;;;6154933;27;80496;-66
2021/03/30 00:03:36;;;;;;;16.85;9.95;;;23.50;38.10;;;;;;6159554;27;81074;-66
2021/03/30 00:06:36;;;;;;;16.73;10.10;;;23.50;37.50;;;;;;6150850;28;80396;-66
2021/03/30 00:09:37;;;;;;;17.80;9.98;;;23.50;38.10;;;;;;6145707;27;82986;-65
2021/03/30 00:12:37;;;;;;;18.70;9.85;;;23.50;38.20;;;;;;6154951;28;84508;-66
2021/03/30 00:15:38;;;;;;;20.95;10.82;;;23.50;37.90;;;;;;6139765;27;83746;-66
2021/03/30 00:18:39;;;;;;;21.13;10.57;;;23.50;38.10;;;;;;6147927;27;83635;-66
2021/03/30 00:21:39;;;;;;;18.15;11.50;;;23.50;38.10;;;;;;6152594;27;82952;-66
2021/03/30 00:24:40;;;;;;;20.15;10.43;;;23.50;37.60;;;;;;6147181;28;84539;-67
2021/03/30 00:27:40;;;;;;;20.60;11.88;;;23.50;37.40;;;;;;6151306;27;84039;-67
2021/03/30 00:30:41;;;;;;;17.70;10.75;;;23.50;38.40;;;;;;6152208;28;83251;-65
2021/03/30 00:33:41;;;;;;;16.70;10.07;;;23.50;37.90;;;;;;6158952;27;84707;-66
2021/03/30 00:36:42;;;;;;;17.25;9.98;;;23.50;38.00;;;;;;6152724;28;83577;-66
2021/03/30 00:39:42;;;;;;;17.27;10.45;;;23.50;37.90;;;;;;6153584;27;83496;-66
2021/03/30 00:42:43;;;;;;;19.25;10.90;;;23.50;38.10;;;;;;6149007;28;86297;-66
2021/03/30 00:45:43;;;;;;;19.40;10.80;;;23.50;38.00;;;;;;6148673;27;83278;-66
2021/03/30 00:48:44;;;;;;;19.27;10.57;;;23.50;37.70;;;;;;6153594;28;86073;-65
2021/03/30 00:51:44;;;;;;;20.33;10.93;;;23.50;37.70;;;;;;6156763;27;85927;-65
2021/03/30 00:55:20;;;;;;;16.00;10.15;;;23.50;37.60;;;;;;6139035;28;83530;-65
2021/03/30 00:58:23;;;;;;;18.00;10.32;;;23.50;38.40;;;;;;6144491;27;85472;-65
2021/03/30 01:01:23;;;;;;;16.85;10.10;;;23.50;38.10;;;;;;6155410;28;84770;-65
2021/03/30 01:04:24;;;;;;;19.20;10.93;;;23.50;38.20;;;;;;6145462;27;83547;-65
2021/03/30 01:07:24;;;;;;;18.15;10.07;;;23.50;38.40;;;;;;6153577;28;82834;-65
2021/03/30 01:10:25;;;;;;;16.80;10.00;;;23.50;38.50;;;;;;6144103;27;83361;-65
2021/03/30 01:13:25;;;;;;;14.57;9.60;;;23.50;38.10;;;;;;6156911;27;83586;-65
2021/03/30 01:16:26;;;;;;;17.52;10.10;;;23.50;38.40;;;;;;6150879;27;84387;-65
2021/03/30 01:19:26;;;;;;;17.65;9.45;;;23.50;38.10;;;;;;6152634;28;83729;-65
2021/03/30 01:22:27;;;;;;;15.10;9.15;;;23.50;38.40;;;;;;6151066;28;84742;-65
2021/03/30 01:25:27;;;;;;;16.60;9.23;;;23.50;38.40;;;;;;6151798;27;80892;-66
2021/03/30 01:28:28;;;;;;;13.02;8.23;;;23.50;38.30;;;;;;6155204;28;80950;-67
2021/03/30 01:31:29;;;;;;;15.02;8.93;;;23.50;38.60;;;;;;6144687;27;81917;-66
2021/03/30 01:34:29;;;;;;;19.08;8.63;;;23.50;38.40;;;;;;6153362;28;81438;-66
2021/03/30 01:37:30;;;;;;;19.40;9.35;;;23.50;38.20;;;;;;6151020;27;80766;-66
2021/03/30 01:40:30;;;;;;;14.65;7.93;;;23.50;38.10;;;;;;6159853;28;81031;-66
2021/03/30 01:43:31;;;;;;;12.30;7.75;;;23.50;38.30;;;;;;6157463;27;80852;-66
2021/03/30 01:46:31;;;;;;;10.10;6.78;;;23.50;38.50;;;;;;6150237;28;81629;-66
2021/03/30 01:49:32;;;;;;;14.05;8.23;;;23.50;38.40;;;;;;6155331;27;80822;-66
2021/03/30 01:52:32;;;;;;;13.25;7.60;;;23.50;38.80;;;;;;6150184;27;81751;-66
2021/03/30 01:55:33;;;;;;;13.57;8.02;;;23.50;38.40;;;;;;6156802;27;80743;-65
2021/03/30 01:58:33;;;;;;;13.38;7.97;;;23.50;38.80;;;;;;6146003;28;80773;-66
2021/03/30 02:01:34;;;;;;;14.20;8.07;;;23.50;38.60;;;;;;6154428;27;81445;-65
2021/03/30 02:04:34;;;;;;;12.68;7.65;;;23.50;38.60;;;;;;6149665;27;80946;-65
2021/03/30 02:07:35;;;;;;;12.82;7.65;;;23.40;38.50;;;;;;6153462;27;81068;-65
2021/03/30 02:10:52;;;;;;;10.35;6.78;;;23.40;38.80;;;;;;6159885;27;80870;-66
2021/03/30 02:13:56;;;;;;;13.35;8.07;;;23.50;38.10;;;;;;6155349;27;81801;-66
2021/03/30 02:16:57;;;;;;;10.00;6.43;;;23.40;37.90;;;;;;6150682;28;81303;-66
2021/03/30 02:19:58;;;;;;;12.35;7.32;;;23.40;38.60;;;;;;6157025;27;80489;-66
2021/03/30 02:22:59;;;;;;;11.30;7.63;;;23.40;38.40;;;;;;6152894;28;80863;-66
2021/03/30 02:26:00;;;;;;;11.38;6.95;;;23.40;38.50;;;;;;6141484;27;80695;-66
2021/03/30 02:29:03;;;;;;;11.45;7.50;;;23.40;38.20;;;;;;6144150;28;81286;-67
2021/03/30 02:32:04;;;;;;;10.38;6.28;;;23.40;38.10;;;;;;6146773;27;80971;-66
2021/03/30 02:35:05;;;;;;;11.18;6.57;;;23.40;37.80;;;;;;6155899;28;80322;-66
2021/03/30 02:38:05;;;;;;;8.88;6.07;;;23.40;38.40;;;;;;6144581;27;80802;-66
2021/03/30 02:41:06;;;;;;;12.13;6.13;;;23.40;38.40;;;;;;6145110;28;80643;-66
2021/03/30 02:44:06;;;;;;;9.57;6.10;;;23.40;38.30;;;;;;6155782;28;80832;-66
2021/03/30 02:47:07;;;;;;;11.98;6.55;;;23.40;38.20;;;;;;6153795;28;80699;-66
2021/03/30 02:50:07;;;;;;;11.85;6.97;;;23.40;38.30;;;;;;6156797;27;81465;-66
2021/03/30 02:53:08;;;;;;;9.55;6.05;;;23.40;38.40;;;;;;6151070;28;80497;-66
2021/03/30 02:56:08;;;;;;;9.23;6.00;;;23.40;38.60;;;;;;6154709;27;80537;-66
2021/03/30 02:59:09;;;;;;;11.35;6.60;;;23.40;38.60;;;;;;6152672;28;83778;-66
2021/03/30 03:02:09;;;;;;;11.90;6.57;;;23.40;38.90;;;;;;6158756;27;80507;-66
2021/03/30 03:05:10;;;;;;;8.82;5.75;;;23.40;38.70;;;;;;6147918;28;80830;-66
2021/03/30 03:08:11;;;;;;;11.60;7.07;;;23.40;38.10;;;;;;6134729;27;81374;-66
2021/03/30 03:11:11;;;;;;;8.98;5.47;;;23.40;38.30;;;;;;6160280;27;80978;-66
2021/03/30 03:14:12;;;;;;;9.60;5.60;;;23.40;38.60;;;;;;6140615;27;80623;-66
2021/03/30 03:17:12;;;;;;;11.48;5.68;;;23.40;38.50;;;;;;6153678;28;80395;-67
2021/03/30 03:20:13;;;;;;;9.13;5.90;;;23.40;38.20;;;;;;6126768;27;81144;-66
2021/03/30 03:23:13;;;;;;;10.82;6.10;;;23.40;38.10;;;;;;6152442;28;86252;-66
2021/03/30 03:26:14;;;;;;;8.35;5.05;;;23.50;37.30;;;;;;6159858;27;81192;-65
2021/03/30 03:29:14;;;;;;;6.60;4.75;;;23.50;36.90;;;;;;6151903;28;81519;-66
2021/03/30 03:32:15;;;;;;;8.05;4.97;;;23.50;37.00;;;;;;6154078;27;80882;-65
2021/03/30 03:35:16;;;;;;;7.90;5.28;;;23.40;37.20;;;;;;6146108;28;81158;-67
2021/03/30 03:38:16;;;;;;;7.85;4.57;;;23.40;37.20;;;;;;6150826;27;82892;-65
2021/03/30 03:41:17;;;;;;;9.82;5.78;;;23.50;37.30;;;;;;6155266;27;81267;-65
2021/03/30 03:44:17;;;;;;;8.35;4.93;;;23.40;37.30;;;;;;6159700;28;81509;-69
2021/03/30 03:47:18;;;;;;;9.43;4.97;;;23.40;37.40;;;;;;6163507;27;80649;-66
2021/03/30 03:50:19;;;;;;;8.10;5.28;;;23.50;37.60;;;;;;6156644;28;83141;-67
2021/03/30 03:53:19;;;;;;;7.40;4.63;;;23.50;37.70;;;;;;6141660;27;80698;-66
2021/03/30 03:56:20;;;;;;;6.22;4.25;;;23.50;37.80;;;;;;6163408;27;80695;-65
2021/03/30 03:59:21;;;;;;;7.93;4.78;;;23.50;37.90;;;;;;6150052;27;80719;-65
2021/03/30 04:02:21;;;;;;;10.90;4.80;;;23.50;38.00;;;;;;6157847;28;81012;-66
2021/03/30 04:05:22;;;;;;;7.03;4.50;;;23.50;38.10;;;;;;6129937;27;80878;-67
2021/03/30 04:08:23;;;;;;;7.97;4.40;;;23.60;38.20;;;;;;6152761;28;81175;-65
2021/03/30 04:11:23;;;;;;;8.02;5.20;;;23.60;38.30;;;;;;6158230;27;80761;-67
2021/03/30 04:14:24;;;;;;;8.35;4.85;;;23.60;38.20;;;;;;6149969;27;80325;-68
2021/03/30 04:17:24;;;;;;;6.45;4.03;;;23.60;38.30;;;;;;6153337;27;81042;-67
2021/03/30 04:20:25;;;;;;;4.95;3.97;;;23.60;38.30;;;;;;6159910;28;81151;-67
2021/03/30 04:23:25;;;;;;;7.13;4.60;;;23.60;38.30;;;;;;6154625;28;80843;-67
2021/03/30 04:26:26;;;;;;;10.10;5.53;;;23.60;38.30;;;;;;6151609;28;81485;-68
2021/03/30 04:29:26;;;;;;;5.82;3.83;;;23.60;38.40;;;;;;6165936;28;80601;-67
2021/03/30 04:32:27;;;;;;;7.90;4.45;;;23.60;38.50;;;;;;6157215;27;80723;-68
2021/03/30 04:35:27;;;;;;;8.02;4.35;;;23.60;38.40;;;;;;6158748;27;81618;-67
2021/03/30 04:38:29;;;;;;;6.18;4.05;;;23.60;38.40;;;;;;6148443;27;81064;-67
2021/03/30 04:41:29;;;;;;;5.40;3.40;;;23.60;38.50;;;;;;6159362;28;80953;-66
2021/03/30 04:44:30;;;;;;;7.35;4.03;;;23.60;39.10;;;;;;6153566;28;80909;-67
2021/03/30 04:47:30;;;;;;;5.70;3.80;;;23.70;38.60;;;;;;6172274;27;81658;-67
2021/03/30 04:50:31;;;;;;;6.03;3.88;;;23.70;38.50;;;;;;6152086;27;80740;-69
2021/03/30 04:53:33;;;;;;;11.30;4.13;;;23.60;38.50;;;;;;6155996;28;80691;-70
2021/03/30 04:56:36;;;;;;;7.38;4.30;;;23.70;38.60;;;;;;6154954;27;80873;-68
2021/03/30 04:59:37;;;;;;;6.93;3.70;;;23.70;38.60;;;;;;6158653;28;80840;-69
2021/03/30 05:02:37;;;;;;;6.68;3.35;;;23.70;38.50;;;;;;6163968;27;80943;-68
2021/03/30 05:05:38;;;;;;;5.78;3.42;;;23.60;38.50;;;;;;6156422;27;80876;-69
2021/03/30 05:08:38;;;;;;;7.10;3.65;;;23.60;39.80;;;;;;6170231;28;80895;-71
2021/03/30 05:11:39;;;;;;;6.75;4.13;;;23.60;40.10;;;;;;6157294;28;80616;-67
2021/03/30 05:14:39;;;;;;;231.60;76.05;;;23.70;39.80;;;;;;6161277;28;81817;-68
2021/03/30 05:17:40;;;;;;;485.92;169.63;;;23.60;40.00;;;;;;6151934;28;85761;-68
2021/03/30 05:20:41;;;;;;;558.08;199.60;;;23.60;40.10;;;;;;6150473;27;86158;-68
2021/03/30 05:23:41;;;;;;;533.78;195.00;;;23.70;40.20;;;;;;6151535;28;85777;-69
2021/03/30 05:26:42;;;;;;;347.88;120.50;;;23.70;40.70;;;;;;6152377;27;85520;-69
2021/03/30 05:29:45;;;;;;;270.02;96.97;;;23.70;40.90;;;;;;6152264;28;86314;-69
2021/03/30 05:32:46;;;;;;;290.90;99.90;;;23.70;41.50;;;;;;6147401;28;85304;-70
2021/03/30 05:35:46;;;;;;;498.90;181.32;;;23.70;41.70;;;;;;6160991;27;83500;-70
2021/03/30 05:38:47;;;;;;;498.27;187.13;;;23.80;42.10;;;;;;6148730;27;85937;-70
2021/03/30 05:41:47;;;;;;;586.60;237.57;;;23.80;44.20;;;;;;6145912;27;85977;-69
2021/03/30 05:44:48;;;;;;;501.08;192.05;;;23.80;44.40;;;;;;6150037;28;86150;-69
2021/03/30 05:47:48;;;;;;;434.15;163.15;;;23.80;44.40;;;;;;6149423;27;85814;-69
2021/03/30 05:50:49;;;;;;;459.67;177.02;;;23.80;44.90;;;;;;6144282;28;86355;-70
2021/03/30 05:53:49;;;;;;;445.42;165.05;;;23.80;43.50;;;;;;6145010;27;86142;-68
2021/03/30 05:56:50;;;;;;;427.67;161.02;;;23.70;43.50;;;;;;6148961;28;94245;-67
2021/03/30 05:59:50;;;;;;;396.30;147.73;;;23.80;43.70;;;;;;6144703;27;86909;-68
2021/03/30 06:02:51;;;;;;;364.08;133.77;;;23.80;44.30;;;;;;6160201;27;86144;-69
2021/03/30 06:05:52;;;;;;;345.90;125.03;;;23.80;44.60;;;;;;6133735;27;85629;-69
2021/03/30 06:08:52;;;;;;;291.73;112.72;;;23.90;44.40;;;;;;6148053;28;85964;-68
2021/03/30 06:11:53;;;;;;;267.67;108.30;;;23.90;44.10;;;;;;6140919;27;85955;-69
2021/03/30 06:14:53;;;;;;;260.08;103.43;;;23.80;44.20;;;;;;6147027;27;85654;-68
2021/03/30 06:17:54;;;;;;;250.00;97.70;;;23.90;44.40;;;;;;6158176;27;85968;-70
2021/03/30 06:20:54;;;;;;;228.73;91.82;;;23.90;44.20;;;;;;6149055;28;86974;-68
2021/03/30 06:23:57;;;;;;;242.25;91.82;;;23.80;44.20;;;;;;6149755;27;83760;-68
2021/03/30 06:26:58;;;;;;;218.25;83.32;;;23.80;43.90;;;;;;6151372;28;83263;-70
2021/03/30 06:29:58;;;;;;;194.77;79.93;;;23.80;43.80;;;;;;6165952;27;82959;-68
2021/03/30 06:32:59;;;;;;;189.43;76.28;;;23.80;43.90;;;;;;6162546;28;83557;-69
2021/03/30 06:36:00;;;;;;;192.43;74.43;;;23.80;43.90;;;;;;6154244;27;83334;-71
2021/03/30 06:39:04;;;;;;;179.60;71.50;;;23.80;43.60;;;;;;6140935;28;86151;-69
2021/03/30 06:42:09;;;;;;;165.98;64.95;;;23.80;43.70;;;;;;6153275;28;83281;-68
2021/03/30 06:45:10;;;;;;;153.57;61.30;;;23.80;43.50;;;;;;6154989;27;83580;-71
2021/03/30 06:48:10;;;;;;;142.40;56.45;;;23.80;43.30;;;;;;6144868;28;83415;-71
2021/03/30 06:51:11;;;;;;;123.82;51.55;;;23.90;43.40;;;;;;6165951;27;83766;-70
2021/03/30 06:54:12;;;;;;;107.57;44.35;;;23.90;43.60;;;;;;6147021;28;83911;-71
2021/03/30 06:57:13;;;;;;;109.47;42.83;;;23.90;43.30;;;;;;6146766;27;85469;-70
2021/03/30 07:00:13;;;;;;;100.80;41.53;;;23.80;44.00;;;;;;6150561;27;83324;-71
2021/03/30 07:03:14;;;;;;;103.40;39.95;;;23.80;43.00;;;;;;6158321;28;83295;-71
2021/03/30 07:06:14;;;;;;;78.45;33.55;;;23.80;43.20;;;;;;6154724;27;84186;-70
2021/03/30 07:09:15;;;;;;;80.53;31.23;;;23.80;42.60;;;;;;6152558;28;83745;-71
2021/03/30 07:12:15;;;;;;;75.53;30.90;;;23.80;42.20;;;;;;6145716;27;83710;-70
2021/03/30 07:15:16;;;;;;;70.30;30.23;;;23.70;42.80;;;;;;6146833;28;86111;-71
2021/03/30 07:18:16;;;;;;;70.70;29.52;;;23.70;42.70;;;;;;6152915;28;83658;-71
2021/03/30 07:21:19;;;;;;;65.07;27.83;;;23.70;42.30;;;;;;6138755;28;83715;-71
2021/03/30 07:24:19;;;;;;;64.55;27.05;;;23.70;42.00;;;;;;6130523;27;84915;-70
2021/03/30 07:27:20;;;;;;;63.58;26.67;;;23.80;42.20;;;;;;6146865;28;83091;-70
2021/03/30 07:30:21;;;;;;;64.70;25.52;;;23.80;41.70;;;;;;6153403;27;83806;-70
2021/03/30 07:33:21;;;;;;;60.47;25.55;;;23.80;42.60;;;;;;6153995;27;83972;-69
2021/03/30 07:36:22;;;;;;;55.05;23.27;;;23.80;42.20;;;;;;6147209;27;83272;-69
2021/03/30 07:39:22;;;;;;;47.58;21.20;;;23.80;43.20;;;;;;6158213;27;82759;-69
2021/03/30 07:42:23;;;;;;;47.67;20.70;;;23.80;43.10;;;;;;6143705;28;83245;-68
2021/03/30 07:45:23;;;;;;;48.13;20.13;;;23.80;43.60;;;;;;6152855;28;84284;-68
2021/03/30 07:48:24;;;;;;;41.03;19.27;;;23.80;44.30;;;;;;6148815;27;83333;-68
2021/03/30 07:51:25;;;;;;;43.97;19.05;;;23.80;43.60;;;;;;6146845;27;83263;-68
2021/03/30 07:54:25;;;;;;;31.40;15.55;;;23.70;44.50;;;;;;6150030;27;83673;-66
2021/03/30 07:57:26;;;;;;;31.17;14.48;;;23.70;44.80;;;;;;6156352;27;83657;-67
2021/03/30 08:00:26;;;;;;;33.05;13.57;;;23.60;45.70;;;;;;6160371;27;83340;-68
2021/03/30 08:03:27;;;;;;;29.80;13.48;;;23.60;45.80;;;;;;6148843;27;83354;-67
2021/03/30 08:06:28;;;;;;;25.67;13.32;;;23.60;46.10;;;;;;6154440;27;83429;-68
2021/03/30 08:09:28;;;;;;;26.50;12.93;;;23.60;46.10;;;;;;6154260;27;83147;-68
2021/03/30 08:12:29;;;;;;;25.65;11.70;;;23.50;46.00;;;;;;6140932;27;83638;-68
2021/03/30 08:15:29;;;;;;;24.20;11.90;;;23.50;45.70;;;;;;6146818;27;85661;-68
2021/03/30 08:18:30;;;;;;;25.05;11.38;;;23.50;45.40;;;;;;6169357;27;84463;-68
2021/03/30 08:21:30;;;;;;;20.52;9.45;;;23.50;45.30;;;;;;6147813;28;83916;-68
2021/03/30 08:24:31;;;;;;;22.05;10.32;;;23.40;45.00;;;;;;6156089;27;87066;-68
2021/03/30 08:27:32;;;;;;;21.33;10.32;;;23.30;44.80;;;;;;6160985;28;83393;-68
2021/03/30 08:30:32;;;;;;;20.40;9.10;;;23.30;44.80;;;;;;6158297;28;83917;-69
2021/03/30 08:33:33;;;;;;;23.95;10.40;;;23.30;44.90;;;;;;6156004;28;82872;-69
2021/03/30 08:36:33;;;;;;;19.67;9.13;;;23.30;44.90;;;;;;6154276;27;83744;-68
2021/03/30 08:39:34;;;;;;;17.40;9.40;;;23.20;45.00;;;;;;6157982;28;82969;-69
2021/03/30 08:42:34;;;;;;;16.83;8.52;;;23.20;45.00;;;;;;6157951;27;80533;-67
2021/03/30 08:45:35;;;;;;;15.02;8.57;;;23.20;45.00;;;;;;6166322;28;81340;-70
2021/03/30 08:48:36;;;;;;;17.30;9.25;;;23.20;45.00;;;;;;6159035;27;80773;-69
2021/03/30 08:51:36;;;;;;;15.18;9.07;;;23.20;44.90;;;;;;6159433;28;81066;-68
2021/03/30 08:54:37;;;;;;;18.58;9.40;;;23.20;44.90;;;;;;6160028;28;80621;-70
2021/03/30 08:57:38;;;;;;;17.63;9.05;;;23.20;45.00;;;;;;6149219;28;80654;-69
2021/03/30 09:00:38;;;;;;;14.18;8.23;;;23.20;44.80;;;;;;6165502;27;80728;-67
2021/03/30 09:03:39;;;;;;;14.13;8.57;;;23.30;45.10;;;;;;6156218;28;81440;-70
2021/03/30 09:06:41;;;;;;;19.02;9.40;;;23.30;44.90;;;;;;6156939;27;81279;-68
2021/03/30 09:09:42;;;;;;;15.10;8.73;;;23.30;45.00;;;;;;6159864;27;85685;-67
2021/03/30 09:12:43;;;;;;;19.70;9.23;;;23.30;45.00;;;;;;6146160;28;85445;-67
2021/03/30 09:15:43;;;;;;;15.18;8.50;;;23.30;45.10;;;;;;6157134;28;80754;-68
2021/03/30 09:18:44;;;;;;;16.63;8.18;;;23.40;44.80;;;;;;6163784;27;80751;-67
2021/03/30 09:21:45;;;;;;;14.32;8.18;;;23.40;44.40;;;;;;6165160;28;80855;-68
2021/03/30 09:27:49;;;;;;;16.63;8.27;;;23.40;44.20;;;;;;6145152;28;81329;-69
2021/03/30 09:30:49;;;;;;;15.75;8.52;;;23.30;44.40;;;;;;6156150;28;80705;-71
2021/03/30 09:33:50;;;;;;;16.50;8.70;;;23.40;44.30;;;;;;6155023;28;81943;-67
2021/03/30 09:36:50;;;;;;;16.65;8.73;;;23.40;44.10;;;;;;6163208;27;81553;-70
2021/03/30 09:39:51;;;;;;;13.85;8.55;;;23.40;44.60;;;;;;6152995;28;89326;-70
2021/03/30 09:42:51;;;;;;;14.98;7.38;;;23.40;44.50;;;;;;6156059;27;82244;-69
2021/03/30 09:45:53;;;;;;;15.77;8.05;;;23.40;44.80;;;;;;6164103;28;80202;-68
2021/03/30 09:48:54;;;;;;;18.23;7.50;;;23.40;44.90;;;;;;6158460;27;80483;-70
2021/03/30 09:51:54;;;;;;;13.95;7.10;;;23.40;44.50;;;;;;6158071;28;81776;-70
2021/03/30 09:54:55;;;;;;;13.15;7.13;;;23.50;44.90;;;;;;6157147;27;80545;-70
2021/03/30 09:57:55;;;;;;;14.65;7.70;;;23.50;44.20;;;;;;6154217;28;80640;-71
2021/03/30 10:00:56;;;;;;;16.10;7.65;;;23.60;43.70;;;;;;6145625;27;80880;-69
2021/03/30 10:03:57;;;;;;;11.73;6.88;;;23.60;44.10;;;;;;6154554;27;80762;-71
2021/03/30 10:06:59;;;;;;;15.57;7.47;;;23.60;44.30;;;;;;6156597;27;80244;-71
2021/03/30 10:09:59;;;;;;;15.15;7.97;;;23.60;43.80;;;;;;6161200;27;80434;-73
2021/03/30 10:13:04;;;;;;;15.23;7.15;;;23.60;44.70;;;;;;6164782;27;80275;-71
2021/03/30 10:16:08;;;;;;;14.43;7.47;;;23.50;44.10;;;;;;6150349;28;80703;-71
2021/03/30 10:19:08;;;;;;;18.27;7.13;;;23.50;43.70;;;;;;6159350;27;80519;-71
2021/03/30 10:22:09;;;;;;;18.25;7.75;;;23.60;43.50;;;;;;6164771;27;80440;-70
2021/03/30 10:25:10;;;;;;;20.83;8.75;;;23.60;43.40;;;;;;6154481;28;80771;-72
2021/03/30 10:28:10;;;;;;;42.58;14.35;;;23.60;44.10;;;;;;6172336;27;80551;-72
2021/03/30 10:31:19;;;;;;;49.97;15.70;;;23.70;44.50;;;;;;6151413;28;89253;-70
2021/03/30 10:34:20;;;;;;;37.72;12.80;;;23.70;44.70;;;;;;6160283;27;83391;-72
2021/03/30 10:37:21;;;;;;;31.77;12.02;;;23.80;43.80;;;;;;6152028;27;83532;-71
2021/03/30 10:40:21;;;;;;;42.67;13.63;;;23.80;43.80;;;;;;6127901;27;84061;-72
2021/03/30 10:43:22;;;;;;;36.60;12.43;;;23.70;44.20;;;;;;6146879;28;84336;-70
2021/03/30 10:46:22;;;;;;;36.40;13.02;;;23.70;43.90;;;;;;6104153;27;83479;-71
2021/03/30 10:49:23;;;;;;;40.53;12.25;;;23.70;43.90;;;;;;6153830;28;84612;-71
2021/03/30 10:52:25;;;;;;;44.65;14.77;;;23.80;43.90;;;;;;6158141;28;83441;-70
2021/03/30 10:55:25;;;;;;;33.13;13.75;;;23.80;43.80;;;;;;6150279;28;83697;-71
2021/03/30 10:58:26;;;;;;;36.20;12.93;;;23.80;43.70;;;;;;6150755;27;85337;-72
2021/03/30 11:01:27;;;;;;;38.55;14.52;;;23.80;43.80;;;;;;6150345;28;83244;-71
2021/03/30 11:04:27;;;;;;;35.35;12.82;;;23.80;43.70;;;;;;6157595;27;83120;-71
2021/03/30 11:07:28;;;;;;;37.22;14.07;;;23.80;43.60;;;;;;6157471;28;83061;-69
2021/03/30 11:10:28;;;;;;;29.77;12.48;;;23.90;43.50;;;;;;6146934;28;83639;-68
2021/03/30 11:13:29;;;;;;;32.28;13.10;;;23.80;43.50;;;;;;6151047;27;84046;-67
2021/03/30 11:16:29;;;;;;;29.52;12.48;;;23.80;43.40;;;;;;6152325;28;82844;-69
2021/03/30 11:19:30;;;;;;;27.65;12.40;;;23.80;43.20;;;;;;6168248;27;84677;-70
2021/03/30 11:22:31;;;;;;;32.22;12.93;;;23.90;43.20;;;;;;6149153;28;84738;-69
2021/03/30 11:25:31;;;;;;;31.42;12.95;;;23.90;43.30;;;;;;6155396;27;83683;-69
2021/03/30 11:28:38;;;;;;;24.50;12.10;;;23.90;43.60;;;;;;6153153;28;84588;-67
2021/03/30 11:34:52;;;;;;;26.95;11.63;;;23.90;43.60;;;;;;6155206;27;83622;-66
2021/03/30 11:40:53;;;;;;;22.25;10.43;;;23.90;43.40;;;;;;6147608;28;84097;-66
2021/03/30 11:43:54;;;;;;;24.42;11.00;;;23.90;43.50;;;;;;6154930;28;86930;-68
2021/03/30 11:46:54;;;;;;;32.05;10.70;;;24.00;43.50;;;;;;6150752;27;83440;-69
2021/03/30 11:49:55;;;;;;;21.02;10.90;;;24.00;43.20;;;;;;6162437;28;83201;-70
2021/03/30 11:52:55;;;;;;;18.33;10.23;;;23.90;42.90;;;;;;6145194;27;83730;-68
2021/03/30 11:55:56;;;;;;;20.77;10.73;;;23.90;43.00;;;;;;6158753;27;89918;-69
2021/03/30 11:58:57;;;;;;;23.95;11.15;;;23.90;43.00;;;;;;6129197;27;85160;-70
2021/03/30 12:01:58;;;;;;;21.48;10.60;;;23.90;43.50;;;;;;6152537;27;85595;-71
2021/03/30 12:04:58;;;;;;;17.73;10.25;;;24.00;43.20;;;;;;6156974;27;83303;-71
2021/03/30 12:07:59;;;;;;;20.08;10.65;;;24.00;43.10;;;;;;6165488;27;83586;-69
2021/03/30 12:11:00;;;;;;;15.57;9.60;;;24.10;43.60;;;;;;6152602;27;84056;-70
2021/03/30 12:14:00;;;;;;;18.80;10.50;;;24.00;42.60;;;;;;6161914;28;82802;-70
2021/03/30 12:17:01;;;;;;;21.30;9.68;;;24.00;42.40;;;;;;6147310;28;83399;-68
2021/03/30 12:20:01;;;;;;;18.80;9.50;;;23.90;42.70;;;;;;6160365;28;83937;-70
2021/03/30 12:23:02;;;;;;;17.17;9.00;;;24.00;43.40;;;;;;6161190;27;80677;-67
2021/03/30 12:26:02;;;;;;;20.13;9.60;;;24.00;43.00;;;;;;6158051;27;80611;-69
2021/03/30 12:29:03;;;;;;;18.23;9.70;;;24.00;43.20;;;;;;6152927;27;80916;-70
2021/03/30 12:32:03;;;;;;;21.10;9.73;;;24.00;42.90;;;;;;6167777;28;80713;-70
2021/03/30 12:35:04;;;;;;;18.90;10.52;;;24.00;43.10;;;;;;6160183;27;80824;-73
2021/03/30 12:38:04;;;;;;;19.83;10.02;;;24.00;44.40;;;;;;6156280;27;83546;-72
2021/03/30 12:41:05;;;;;;;22.60;11.13;;;24.00;46.10;;;;;;6152376;27;83167;-72
2021/03/30 12:44:06;;;;;;;21.40;10.38;;;24.00;46.50;;;;;;6151013;28;83262;-67
2021/03/30 12:47:06;;;;;;;32.15;12.63;;;24.00;45.30;;;;;;6165412;27;87082;-66
2021/03/30 12:50:07;;;;;;;26.00;14.13;;;24.00;44.70;;;;;;6154775;28;84649;-67
2021/03/30 12:53:07;;;;;;;28.58;14.77;;;23.90;45.00;;;;;;6149584;27;83283;-66
2021/03/30 12:56:08;;;;;;;30.00;15.10;;;23.90;44.10;;;;;;6152431;27;83154;-67
2021/03/30 12:59:09;;;;;;;36.00;15.60;;;23.90;44.10;;;;;;6150037;27;83704;-66
2021/03/30 13:02:11;;;;;;;26.45;14.13;;;23.80;43.90;;;;;;6156758;27;85276;-68
2021/03/30 13:05:12;;;;;;;28.80;13.93;;;23.80;43.50;;;;;;6158326;27;83801;-68
2021/03/30 13:08:12;;;;;;;22.60;13.13;;;23.80;43.70;;;;;;6148989;28;84022;-68
2021/03/30 13:11:13;;;;;;;21.80;11.77;;;23.80;43.90;;;;;;6164500;27;83100;-74
2021/03/30 13:14:13;;;;;;;23.80;11.43;;;23.80;43.90;;;;;;6146573;28;85566;-69
2021/03/30 13:17:14;;;;;;;20.27;11.40;;;23.90;44.20;;;;;;6153378;27;84114;-71
2021/03/30 13:20:15;;;;;;;21.88;11.88;;;23.90;43.90;;;;;;6152632;28;84472;-71
2021/03/30 13:23:15;;;;;;;21.10;10.23;;;23.90;44.30;;;;;;6161000;27;84324;-68
2021/03/30 13:26:16;;;;;;;18.77;10.70;;;23.90;44.30;;;;;;6158458;27;83601;-70
2021/03/30 13:29:16;;;;;;;19.02;11.25;;;23.90;44.50;;;;;;6151300;27;83191;-72
2021/03/30 13:32:17;;;;;;;19.88;10.30;;;23.90;44.10;;;;;;6147629;28;84180;-69
2021/03/30 13:35:18;;;;;;;19.25;10.20;;;23.90;44.40;;;;;;6151991;27;84288;-70
2021/03/30 13:38:18;;;;;;;18.00;10.15;;;24.00;44.00;;;;;;6148782;28;87215;-70
2021/03/30 13:41:22;;;;;;;18.27;9.30;;;23.90;44.40;;;;;;6153367;27;85782;-73
2021/03/30 13:44:23;;;;;;;21.48;9.98;;;24.00;44.50;;;;;;6157036;28;81726;-70
2021/03/30 13:47:24;;;;;;;21.77;10.48;;;24.00;44.40;;;;;;6155500;28;83017;-70
2021/03/30 13:50:25;;;;;;;21.75;11.80;;;24.00;44.70;;;;;;6152253;27;83562;-70
2021/03/30 13:53:25;;;;;;;27.60;12.60;;;24.00;44.30;;;;;;6157394;27;83812;-69
2021/03/30 13:56:26;;;;;;;27.98;13.40;;;23.90;44.40;;;;;;6149046;27;83344;-70
2021/03/30 13:59:26;;;;;;;28.77;14.18;;;23.90;43.70;;;;;;6144445;28;82965;-70
2021/03/30 14:02:27;;;;;;;25.65;13.57;;;23.90;43.70;;;;;;6148540;27;83428;-69
2021/03/30 14:05:27;;;;;;;30.90;13.63;;;23.80;43.40;;;;;;6147409;27;83021;-68
2021/03/30 14:08:28;;;;;;;33.92;14.65;;;23.80;43.20;;;;;;6150630;27;85979;-69
2021/03/30 14:11:32;;;;;;;24.90;13.63;;;23.80;43.20;;;;;;6148281;27;83439;-70
2021/03/30 14:14:42;;;;;;;26.10;14.65;;;23.70;43.80;;;;;;6153665;28;85470;-69
2021/03/30 14:17:45;;;;;;;31.50;15.32;;;23.70;43.20;;;;;;6160788;27;83405;-70
2021/03/30 14:20:52;;;;;;;22.85;13.88;;;23.70;43.60;;;;;;6142505;28;83773;-69
2021/03/30 14:23:53;;;;;;;39.15;14.70;;;23.60;43.30;;;;;;6164270;27;83661;-70
2021/03/30 14:26:53;;;;;;;29.02;14.45;;;23.60;43.30;;;;;;6145188;28;83121;-69
2021/03/30 14:29:54;;;;;;;22.80;13.18;;;23.60;43.20;;;;;;6149218;28;83924;-69
2021/03/30 14:32:55;;;;;;;25.17;13.20;;;23.60;43.90;;;;;;6147012;27;83398;-69
2021/03/30 14:35:55;;;;;;;26.48;13.48;;;23.60;43.30;;;;;;6154891;27;83415;-70
2021/03/30 14:38:59;;;;;;;24.63;12.85;;;23.60;43.20;;;;;;6154587;27;83393;-70
2021/03/30 14:42:21;;;;;;;23.23;13.05;;;23.60;43.10;;;;;;6157047;27;83416;-69
2021/03/30 14:52:37;;;;;;;23.80;12.73;;;23.60;43.20;;;;;;6158455;27;89112;-69
2021/03/30 14:58:35;;;;;;;21.35;13.00;;;23.50;42.80;;;;;;6147847;27;83840;-69
2021/03/30 15:02:05;;;;;;;21.88;12.27;;;23.60;42.90;;;;;;6145776;28;83508;-70
2021/03/30 15:05:05;;;;;;;26.52;12.82;;;23.60;43.50;;;;;;6143921;27;83766;-69
2021/03/30 15:08:06;;;;;;;25.70;13.68;;;23.60;43.30;;;;;;6155325;27;83894;-71
2021/03/30 15:11:06;;;;;;;26.77;12.38;;;23.60;43.20;;;;;;6141653;27;83751;-71
2021/03/30 15:14:07;;;;;;;25.77;12.52;;;23.50;43.50;;;;;;6144112;28;84416;-69
2021/03/30 15:17:07;;;;;;;23.45;11.25;;;23.50;43.20;;;;;;6145958;27;83328;-69
2021/03/30 15:20:08;;;;;;;22.58;12.43;;;23.50;43.30;;;;;;6153715;28;90468;-70
2021/03/30 15:23:08;;;;;;;29.20;13.60;;;23.40;43.60;;;;;;6148525;27;83547;-67
2021/03/30 15:26:09;;;;;;;21.70;12.57;;;23.40;43.40;;;;;;6149722;27;83237;-70
2021/03/30 15:29:09;;;;;;;25.35;13.27;;;23.40;43.90;;;;;;6147159;27;83115;-70
2021/03/30 15:32:10;;;;;;;29.55;14.43;;;23.40;43.10;;;;;;6146812;27;83921;-69
2021/03/30 15:35:11;;;;;;;33.22;14.75;;;23.40;43.50;;;;;;6147291;28;84399;-74
2021/03/30 15:38:11;;;;;;;26.65;14.07;;;23.40;43.60;;;;;;6158649;28;85099;-70
2021/03/30 15:41:12;;;;;;;35.60;14.23;;;23.40;43.30;;;;;;6141188;28;83345;-72